Flight Track Log - Related Links

Times and Time Zones

All times are in EDT time to prevent confusion due to time zone crossing. See the AAL1326 flight status page for this flight to view local times or setup timezone preferences in your user account.

Time Position Orientation Groundspeed Altitude Reporting Facility
EDT Latitude Longitude Course Direction KTS MPH feet Rate Location/Type
Sat 06:57:37 PM 41.9460 -87.9060 220° Southwest 151 174 1,700  Level FlightAware ADS-B
Sat 06:57:42 PM 41.9420 -87.9060 180° South 157 181 1,900 1,680 Climbing FlightAware ADS-B
Sat 06:58:02 PM 41.9260 -87.9030 172° South 188 216 2,400 1,800 Climbing FlightAware ADS-B
Sat 06:58:32 PM 41.8960 -87.8980 173° South 228 262 3,400 2,200 Climbing FlightAware ADS-B
Sat 06:59:02 PM 41.8630 -87.8900 170° South 260 299 4,600 2,836 Climbing FlightAware ADS-B
Sat 06:59:27 PM 41.8340 -87.8790 164° South 266 306 6,000 3,055 Climbing FlightAware ADS-B
Sat 06:59:57 PM 41.7950 -87.8640 164° South 286 329 7,400 2,618 Climbing FlightAware ADS-B
Sat 07:00:22 PM 41.7630 -87.8520 164° South 304 350 8,400 2,850 Climbing FlightAware ADS-B
Sat 07:00:37 PM 41.7440 -87.8450 165° South 303 349 9,300 3,300 Climbing FlightAware ADS-B
Sat 07:01:22 PM 41.6810 -87.8220 165° South 314 361 11,700 2,894 Climbing FlightAware ADS-B
Sat 07:02:02 PM 41.6230 -87.8000 164° South 330 380 13,400 2,188 Climbing FlightAware ADS-B
Sat 07:02:47 PM 41.5550 -87.7760 165° South 363 418 14,800 1,976 Climbing FlightAware ADS-B
Sat 07:03:27 PM 41.4880 -87.7520 165° South 391 450 16,200 2,175 Climbing FlightAware ADS-B
Sat 07:04:07 PM 41.4130 -87.7250 165° South 403 464 17,700 2,118 Climbing FlightAware ADS-B
Sat 07:04:52 PM 41.3310 -87.7240 179° South 405 466 19,200 2,118 Climbing FlightAware ADS-B
Sat 07:05:32 PM 41.2540 -87.7260 181° South 417 480 20,700 2,188 Climbing FlightAware ADS-B
Sat 07:06:17 PM 41.1670 -87.7210 178° South 434 499 22,300 1,976 Climbing FlightAware ADS-B
Sat 07:06:57 PM 41.0870 -87.7110 175° South 446 513 23,500 1,725 Climbing FlightAware ADS-B
Sat 07:07:37 PM 41.0050 -87.6990 174° South 456 525 24,600 1,694 Climbing FlightAware ADS-B
Sat 07:08:22 PM 40.9110 -87.6870 174° South 462 532 25,900 1,765 Climbing FlightAware ADS-B
Sat 07:09:02 PM 40.8210 -87.6750 174° South 465 535 27,100 1,694 Climbing FlightAware ADS-B
Sat 07:09:47 PM 40.7290 -87.6620 174° South 469 540 28,300 1,412 Climbing FlightAware ADS-B
Sat 07:10:27 PM 40.6420 -87.6490 174° South 475 547 29,100 1,275 Climbing FlightAware ADS-B
Sat 07:11:07 PM 40.5570 -87.6390 175° South 477 549 30,000 1,650 Climbing FlightAware ADS-B
Sat 07:11:47 PM 40.4660 -87.6270 174° South 473 544 31,300 2,188 Climbing FlightAware ADS-B
Sat 07:12:32 PM 40.3650 -87.6130 174° South 453 521 33,100 1,733 Climbing FlightAware ADS-B
Sat 07:13:17 PM 40.2800 -87.5830 165° South 479 551 33,900 988 Climbing FlightAware ADS-B
Sat 07:13:57 PM 40.1980 -87.5320 155° Southeast 487 560 34,500 1,050 Climbing FlightAware ADS-B
Sat 07:14:37 PM 40.1150 -87.4790 154° Southeast 483 556 35,300 1,341 Climbing FlightAware ADS-B
Sat 07:15:22 PM 40.0260 -87.4230 154° Southeast 475 547 36,400 1,200 Climbing FlightAware ADS-B
Sat 07:16:02 PM 39.9440 -87.3710 154° Southeast 473 544 37,000 424 Climbing FlightAware ADS-B
Sat 07:16:47 PM 39.8550 -87.3210 157° South 471 542 37,000  Level FlightAware ADS-B
Sat 07:17:27 PM 39.7730 -87.2790 159° South 471 542 37,000  Level FlightAware ADS-B
Sat 07:18:22 PM 39.6650 -87.2250 159° South 472 543 37,000  Level FlightAware ADS-B
Sat 07:19:02 PM 39.5860 -87.1860 159° South 472 543 37,000  Level FlightAware ADS-B
Sat 07:19:47 PM 39.4860 -87.1350 159° South 472 543 37,000  Level FlightAware ADS-B
Sat 07:20:27 PM 39.4030 -87.0940 159° South 467 537 37,000  Level FlightAware ADS-B
Sat 07:21:12 PM 39.3160 -87.0500 159° South 460 529 37,000  Level FlightAware ADS-B
Sat 07:21:47 PM 39.2440 -87.0150 159° South 458 527 37,000  Level FlightAware ADS-B
Sat 07:22:37 PM 39.1480 -86.9670 159° South 459 528 37,000  Level FlightAware ADS-B
Sat 07:23:17 PM 39.0670 -86.9260 159° South 460 529 37,000  Level FlightAware ADS-B
Sat 07:23:57 PM 38.9870 -86.8860 159° South 456 525 37,000  Level FlightAware ADS-B
Sat 07:24:42 PM 38.9000 -86.8440 159° South 451 519 37,000  Level FlightAware ADS-B
Sat 07:25:22 PM 38.8240 -86.8070 159° South 449 517 37,000  Level FlightAware ADS-B
Sat 07:26:07 PM 38.7350 -86.7640 159° South 447 514 37,000  Level FlightAware ADS-B
Sat 07:26:47 PM 38.6580 -86.7260 159° South 446 513 37,000  Level FlightAware ADS-B
Sat 07:27:27 PM 38.5830 -86.6890 159° South 444 511 37,000  Level FlightAware ADS-B
Sat 07:28:12 PM 38.4970 -86.6470 159° South 443 510 37,000  Level FlightAware ADS-B
Sat 07:28:52 PM 38.4200 -86.6100 159° South 442 509 37,000  Level FlightAware ADS-B
Sat 07:29:37 PM 38.3330 -86.5680 159° South 442 509 37,000  Level FlightAware ADS-B
Sat 07:30:17 PM 38.2580 -86.5320 159° South 442 509 37,000  Level FlightAware ADS-B
Sat 07:30:57 PM 38.1790 -86.4930 159° South 444 511 37,000  Level FlightAware ADS-B
Sat 07:31:42 PM 38.0930 -86.4520 159° South 444 511 37,000  Level FlightAware ADS-B
Sat 07:32:22 PM 38.0160 -86.4150 159° South 444 511 37,000  Level FlightAware ADS-B
Sat 07:33:07 PM 37.9310 -86.3740 159° South 445 512 37,000  Level FlightAware ADS-B
Sat 07:33:47 PM 37.8530 -86.3370 159° South 444 511 37,000  Level FlightAware ADS-B
Sat 07:34:27 PM 37.7780 -86.3020 160° South 445 512 37,000  Level FlightAware ADS-B
Sat 07:35:12 PM 37.6910 -86.2600 159° South 444 511 37,000  Level FlightAware ADS-B
Sat 07:35:52 PM 37.6110 -86.2220 159° South 440 506 37,000  Level FlightAware ADS-B
Sat 07:36:37 PM 37.5280 -86.1830 160° South 439 505 37,000  Level FlightAware ADS-B
Sat 07:37:17 PM 37.4510 -86.1470 160° South 439 505 37,000  Level FlightAware ADS-B
Sat 07:37:52 PM 37.3820 -86.1140 159° South 440 506 37,000  Level FlightAware ADS-B
Sat 07:38:42 PM 37.2880 -86.0700 160° South 440 506 37,000  Level FlightAware ADS-B
Sat 07:39:22 PM 37.2120 -86.0340 159° South 440 506 37,000  Level FlightAware ADS-B
Sat 07:39:37 PM 37.1806 -86.0197 160° South 441 507 37,000  Level FlightAware ADS-B
Sat 07:40:07 PM 37.1310 -85.9970 160° South 440 506 37,000  Level FlightAware ADS-B
Sat 07:40:18 PM 37.1024 -85.9834 159° South 441 507 37,000  Level FlightAware ADS-B
Sat 07:41:24 PM 36.9757 -85.9241 159° South 442 509 37,000  Level FlightAware ADS-B
Sat 07:41:54 PM 36.9165 -85.8964 159° South 443 510 37,000  Level FlightAware ADS-B
Sat 07:42:27 PM 36.8541 -85.8676 160° South 442 509 37,000  Level FlightAware ADS-B
Sat 07:42:57 PM 36.7961 -85.8410 160° South 443 510 37,000  Level FlightAware ADS-B
Sat 07:43:29 PM 36.7353 -85.8130 160° South 443 510 37,000  Level FlightAware ADS-B
Sat 07:44:02 PM 36.6780 -85.7860 159° South 443 510 37,000  Level FlightAware ADS-B
Sat 07:44:12 PM 36.6516 -85.7740 160° South 444 511 37,000  Level FlightAware ADS-B
Sat 07:44:42 PM 36.6000 -85.7500 160° South 442 509 37,000  Level FlightAware ADS-B
Sat 07:44:49 PM 36.5803 -85.7413 160° South 443 510 37,000  Level FlightAware ADS-B
Sat 07:45:23 PM 36.5165 -85.7121 160° South 443 510 37,000  Level FlightAware ADS-B
Sat 07:45:53 PM 36.4588 -85.6855 160° South 444 511 37,000  Level FlightAware ADS-B
Sat 07:46:27 PM 36.3923 -85.6547 160° South 444 511 37,000  Level FlightAware ADS-B
Sat 07:47:00 PM 36.3300 -85.6261 160° South 444 511 37,000  Level FlightAware ADS-B
Sat 07:47:31 PM 36.2700 -85.5988 160° South 445 512 37,000  Level FlightAware ADS-B
Sat 07:48:01 PM 36.2112 -85.5719 160° South 447 514 37,000  Level FlightAware ADS-B
Sat 07:48:36 PM 36.1426 -85.5407 160° South 448 516 37,000  Level FlightAware ADS-B
Sat 07:49:07 PM 36.0833 -85.5140 160° South 449 517 37,000  Level FlightAware ADS-B
Sat 07:49:37 PM 36.0244 -85.4873 160° South 452 520 37,000  Level FlightAware ADS-B
Sat 07:50:18 PM 35.9438 -85.4507 160° South 454 522 37,000  Level FlightAware ADS-B
Sat 07:50:48 PM 35.8840 -85.4237 160° South 454 522 37,000  Level FlightAware ADS-B
Sat 07:51:20 PM 35.8216 -85.3956 160° South 455 524 37,000  Level FlightAware ADS-B
Sat 07:51:50 PM 35.7615 -85.3686 160° South 456 525 37,000  Level FlightAware ADS-B
Sat 07:52:26 PM 35.6912 -85.3371 160° South 456 525 37,000  Level FlightAware ADS-B
Sat 07:52:56 PM 35.6316 -85.3104 160° South 456 525 37,000  Level FlightAware ADS-B
Sat 07:53:26 PM 35.5719 -85.2835 160° South 457 526 37,000  Level FlightAware ADS-B
Sat 07:53:57 PM 35.5108 -85.2563 160° South 457 526 37,000  Level FlightAware ADS-B
Sat 07:54:28 PM 35.4480 -85.2281 160° South 456 525 37,000  Level FlightAware ADS-B
Sat 07:54:59 PM 35.3866 -85.2007 160° South 453 521 37,000  Level FlightAware ADS-B
Sat 07:56:12 PM 35.2620 -85.1450 160° South 453 521 37,000  Level FlightAware ADS-B
Sat 07:56:29 PM 35.2106 -85.1225 160° South 453 521 37,000  Level FlightAware ADS-B
Sat 07:56:59 PM 35.1510 -85.0962 160° South 453 521 37,000  Level FlightAware ADS-B
Sat 07:57:32 PM 35.0940 -85.0710 160° South 454 522 37,000  Level FlightAware ADS-B
Sat 07:57:55 PM 35.0397 -85.0470 160° South 454 522 37,000  Level FlightAware ADS-B
Sat 07:58:40 PM 34.9515 -85.0083 160° South 454 522 37,000  Level FlightAware ADS-B
Sat 07:59:40 PM 34.8325 -84.9556 160° South 453 521 37,000  Level FlightAware ADS-B
Sat 08:00:17 PM 34.7595 -84.9238 160° South 453 521 37,000  Level FlightAware ADS-B
Sat 08:00:48 PM 34.6996 -84.8975 160° South 453 521 37,000  Level FlightAware ADS-B
Sat 08:01:47 PM 34.5880 -84.8490 160° South 443 510 37,000  Level FlightAware ADS-B
Sat 08:02:27 PM 34.5100 -84.8150 160° South 448 516 37,000  Level FlightAware ADS-B
Sat 08:03:07 PM 34.4330 -84.7810 160° South 442 509 37,000  Level FlightAware ADS-B
Sat 08:03:52 PM 34.3420 -84.7420 161° South 444 511 37,000  Level FlightAware ADS-B
Sat 08:04:32 PM 34.2640 -84.7080 160° South 444 511 37,000  Level FlightAware ADS-B
Sat 08:05:17 PM 34.1810 -84.6720 160° South 444 511 37,000  Level FlightAware ADS-B
Sat 08:05:57 PM 34.1010 -84.6370 160° South 447 514 37,000  Level FlightAware ADS-B
Sat 08:06:42 PM 34.0120 -84.5990 161° South 447 514 37,000  Level FlightAware ADS-B
Sat 08:07:22 PM 33.9330 -84.5650 160° South 448 516 37,000  Level FlightAware ADS-B
Sat 08:08:02 PM 33.8540 -84.5230 156° South 464 534 37,000  Level FlightAware ADS-B
Sat 08:08:47 PM 33.7640 -84.4610 150° Southeast 464 534 37,000  Level FlightAware ADS-B
Sat 08:09:27 PM 33.6950 -84.4130 150° Southeast 465 535 37,000  Level FlightAware ADS-B
Sat 08:10:12 PM 33.6050 -84.3520 151° Southeast 466 536 37,000  Level FlightAware ADS-B
Sat 08:10:52 PM 33.5280 -84.2980 150° Southeast 467 537 37,000  Level FlightAware ADS-B
Sat 08:11:32 PM 33.4640 -84.2540 150° Southeast 467 537 37,000  Level FlightAware ADS-B
Sat 08:12:17 PM 33.3660 -84.1870 150° Southeast 473 544 37,000  Level FlightAware ADS-B
Sat 08:12:57 PM 33.2890 -84.1340 150° Southeast 474 545 37,000  Level FlightAware ADS-B
Sat 08:13:42 PM 33.2050 -84.0750 150° Southeast 476 548 37,000  Level FlightAware ADS-B
Sat 08:14:22 PM 33.1260 -84.0210 150° Southeast 477 549 37,000  Level FlightAware ADS-B
Sat 08:15:02 PM 33.0490 -83.9680 150° Southeast 478 550 37,000  Level FlightAware ADS-B
Sat 08:15:47 PM 32.9650 -83.9100 150° Southeast 479 551 37,000  Level FlightAware ADS-B
Sat 08:16:27 PM 32.8930 -83.8610 150° Southeast 472 543 37,000  Level FlightAware ADS-B
Sat 08:17:12 PM 32.8100 -83.8030 150° Southeast 472 543 37,000  Level FlightAware ADS-B
Sat 08:17:47 PM 32.7490 -83.7570 148° Southeast 472 543 37,000  Level FlightAware ADS-B
Sat 08:18:27 PM 32.6860 -83.7110 148° Southeast 472 543 37,000  Level FlightAware ADS-B
Sat 08:19:17 PM 32.6070 -83.6520 148° Southeast 472 543 37,000  Level FlightAware ADS-B
Sat 08:19:57 PM 32.5440 -83.6050 148° Southeast 472 543 37,000  Level FlightAware ADS-B
Sat 08:20:17 PM 32.4310 -83.6530 200° South 37,000  Level FlightAware ADS-B
Sat 08:21:03 PM 32.3450 -83.6233 200° South 466 536 37,000  Level Atlanta Center
Sat 08:22:03 PM 32.2217 -83.5772 162° South 466 536 37,000  Level Atlanta Center
Sat 08:22:52 PM 32.1064 -83.5303 161° South 468 539 37,000  Level Jacksonville Center
Sat 08:23:52 PM 31.9939 -83.4878 162° South 473 544 37,000  Level Jacksonville Center
Sat 08:24:52 PM 31.8667 -83.4406 163° South 479 551 37,000  Level Jacksonville Center
Sat 08:25:52 PM 31.7397 -83.3933 162° South 479 551 37,000  Level Jacksonville Center
Sat 08:26:52 PM 31.6144 -83.3464 162° South 479 551 37,000  Level Jacksonville Center
Sat 08:27:52 PM 31.4894 -83.3044 164° South 479 551 37,000  Level Jacksonville Center
Sat 08:28:52 PM 31.3642 -83.2575 162° South 479 551 37,000  Level Jacksonville Center
Sat 08:29:52 PM 31.2286 -83.2083 163° South 479 551 37,000  Level Jacksonville Center
Sat 08:30:52 PM 31.1014 -83.1644 164° South 479 551 37,000  Level Jacksonville Center
Sat 08:31:52 PM 30.9783 -83.1181 162° South 479 551 37,000  Level Jacksonville Center
Sat 08:32:51 PM 30.8511 -83.0717 163° South 479 551 37,000  Level Jacksonville Center
Sat 08:33:52 PM 30.7403 -83.0281 161° South 470 541 37,000  Level Jacksonville Center
Sat 08:34:52 PM 30.6153 -82.9842 163° South 470 541 37,000  Level Jacksonville Center
Sat 08:35:52 PM 30.4900 -82.9383 163° South 470 541 37,000 -50 Level Jacksonville Center
Sat 08:36:52 PM 30.3647 -82.8925 162° South 476 548 36,900  Descending Jacksonville Center
Sat 08:42:07 PM 29.6850 -82.6540 162° South 475 547 37,000 17 Climbing FlightAware ADS-B
Sat 08:42:52 PM 29.5900 -82.6200 163° South 476 548 37,000  Level FlightAware ADS-B
Sat 08:43:32 PM 29.5060 -82.5910 163° South 476 548 37,000  Level FlightAware ADS-B
Sat 08:44:12 PM 29.4200 -82.5600 163° South 477 549 37,000  Level FlightAware ADS-B
Sat 08:44:57 PM 29.3270 -82.5270 163° South 477 549 37,000  Level FlightAware ADS-B
Sat 08:45:37 PM 29.2400 -82.4970 163° South 478 550 37,000  Level FlightAware ADS-B
Sat 08:46:17 PM 29.1530 -82.4670 163° South 479 551 37,000  Level FlightAware ADS-B
Sat 08:46:57 PM 29.0720 -82.4500 170° South 460 529 37,000  Level FlightAware ADS-B
Sat 08:47:42 PM 28.9860 -82.4530 182° South 451 519 37,000  Level FlightAware ADS-B
Sat 08:48:22 PM 28.9010 -82.4580 183° South 451 519 37,000  Level FlightAware ADS-B
Sat 08:49:12 PM 28.7880 -82.4640 183° South 448 516 37,000  Level FlightAware ADS-B
Sat 08:49:52 PM 28.7040 -82.4690 183° South 449 517 37,000  Level FlightAware ADS-B
Sat 08:50:32 PM 28.6220 -82.4740 183° South 450 518 37,000  Level FlightAware ADS-B
Sat 08:51:12 PM 28.5390 -82.4790 183° South 447 514 37,000  Level FlightAware ADS-B
Sat 08:51:57 PM 28.4450 -82.4840 183° South 445 512 37,000  Level FlightAware ADS-B
Sat 08:52:42 PM 28.3530 -82.4890 183° South 446 513 37,000  Level FlightAware ADS-B
Sat 08:53:22 PM 28.2710 -82.4930 182° South 446 513 37,000  Level FlightAware ADS-B
Sat 08:54:02 PM 28.1890 -82.4980 183° South 447 514 37,000  Level FlightAware ADS-B
Sat 08:54:47 PM 28.0930 -82.5040 183° South 446 513 37,000  Level FlightAware ADS-B
Sat 08:55:27 PM 28.0100 -82.5090 183° South 445 512 37,000  Level FlightAware ADS-B
Sat 08:56:12 PM 27.9190 -82.4990 174° South 462 532 37,000  Level FlightAware ADS-B
Sat 08:56:52 PM 27.8330 -82.4920 176° South 453 521 37,000  Level FlightAware ADS-B
Sat 08:57:37 PM 27.7370 -82.4860 177° South 452 520 37,000  Level FlightAware ADS-B
Sat 08:58:17 PM 27.6540 -82.4800 176° South 451 519 37,000  Level FlightAware ADS-B
Sat 08:58:57 PM 27.5740 -82.4750 177° South 446 513 37,000  Level FlightAware ADS-B
Sat 08:59:32 PM 27.5140 -82.4800 184° South 438 504 37,000 -212 Level FlightAware ADS-B
Sat 09:00:22 PM 27.4000 -82.4930 186° South 438 504 36,700 -600 Descending FlightAware ADS-B
Sat 09:01:02 PM 27.3200 -82.5020 186° South 446 513 36,100 -918 Descending FlightAware ADS-B
Sat 09:01:47 PM 27.2310 -82.5100 185° South 446 513 35,400 -1,200 Descending FlightAware ADS-B
Sat 09:03:07 PM 27.0610 -82.5220 184° South 457 526 33,600 -1,600 Descending FlightAware ADS-B
Sat 09:03:47 PM 26.9820 -82.4760 153° Southeast 496 571 32,200 -1,984 Descending FlightAware ADS-B
Sat 09:05:42 PM 26.8430 -82.2450 124° Southeast 28,300 -1,961 Descending FlightAware ADS-B
Sat 09:07:12 PM 26.7360 -82.0640 123° Southeast 426 490 25,500 -1,988 Descending FlightAware ADS-B
Sat 09:08:22 PM 26.6630 -81.9410 124° Southeast 404 465 23,000 -1,903 Descending FlightAware ADS-B
Sat 09:09:37 PM 26.5900 -81.8190 124° Southeast 382 440 20,900 -1,364 Descending FlightAware ADS-B
Sat 09:10:12 PM 26.5540 -81.7560 123° Southeast 381 438 20,500 -1,143 Descending FlightAware ADS-B
Sat 09:11:22 PM 26.4900 -81.6530 125° Southeast 373 429 18,900 -960 Descending FlightAware ADS-B
Sat 09:11:52 PM 26.4660 -81.6120 123° Southeast 373 429 18,900  Level FlightAware ADS-B
Sat 09:12:42 PM 26.4250 -81.5440 124° Southeast 373 429 18,900  Level FlightAware ADS-B
Sat 09:13:22 PM 26.3920 -81.4900 124° Southeast 373 429 18,900  Level FlightAware ADS-B
Sat 09:14:02 PM 26.3590 -81.4350 124° Southeast 373 429 18,900  Level FlightAware ADS-B
Sat 09:14:42 PM 26.3260 -81.3810 124° Southeast 373 429 18,900 -2,983 Level FlightAware ADS-B
Sat 09:16:57 PM 26.1940 -81.1340 121° Southeast 321 369 10,200 -3,375 Descending FlightAware ADS-B
Sat 09:17:22 PM 26.1740 -81.0950 120° Southeast 299 344 9,900 -686 Descending FlightAware ADS-B
Sat 09:17:32 PM 26.1700 -81.0870 119° Southeast 297 342 9,800 -133 Descending FlightAware ADS-B
Sat 09:18:07 PM 26.1470 -81.0430 120° Southeast 297 342 9,800 -1,500 Level FlightAware ADS-B
Sat 09:18:32 PM 26.1310 -81.0020 113° Southeast 286 329 8,300 -2,291 Descending FlightAware ADS-B
Sat 09:19:02 PM 26.1140 -80.9620 115° Southeast 281 323 7,700 -1,200 Descending FlightAware ADS-B
Sat 09:19:17 PM 26.1070 -80.9450 115° Southeast 279 321 7,400 -1,200 Descending FlightAware ADS-B
Sat 09:19:37 PM 26.0970 -80.9210 115° Southeast 275 316 7,000 -436 Descending FlightAware ADS-B
Sat 09:20:12 PM 26.0800 -80.8760 113° Southeast 240 276 7,000  Level FlightAware ADS-B
Sat 09:20:32 PM 26.0770 -80.8500 97° East 236 272 7,000  Level FlightAware ADS-B
Sat 09:21:07 PM 26.0770 -80.8110 90° East 236 272 7,000  Level FlightAware ADS-B
Sat 09:22:12 PM 26.0770 -80.7310 90° East 229 264 7,000 -336 Level FlightAware ADS-B
Sat 09:23:12 PM 26.0780 -80.6660 89° East 209 241 6,300 -706 Descending FlightAware ADS-B
Sat 09:23:37 PM 26.0780 -80.6380 90° East 210 242 6,000 -375 Descending FlightAware ADS-B
Sat 09:24:32 PM 26.0780 -80.5860 90° East 206 237 5,800 -480 Descending FlightAware ADS-B
Sat 09:25:42 PM 26.0780 -80.5070 90° East 201 231 5,000 -497 Descending FlightAware ADS-B
Sat 09:26:57 PM 26.0780 -80.4290 90° East 203 234 4,600 -467 Descending FlightAware ADS-B
Sat 09:27:12 PM 26.0780 -80.4130 90° East 203 234 4,300 -1,114 Descending FlightAware ADS-B
Sat 09:28:07 PM 26.0780 -80.3560 90° East 201 231 3,300 -1,040 Descending FlightAware ADS-B
Sat 09:28:27 PM 26.0780 -80.3350 90° East 199 229 3,000 -1,029 Descending FlightAware ADS-B
Sat 09:29:17 PM 26.0770 -80.2850 91° East 194 223 2,100 -1,000 Descending FlightAware ADS-B
Sat 09:29:27 PM 26.0770 -80.2750 90° East 191 220 2,000 -1,050 Descending FlightAware ADS-B
Sat 09:29:57 PM 26.0770 -80.2460 90° East 178 205 1,400 -1,000 Descending FlightAware ADS-B
Sat 09:30:27 PM 26.0770 -80.2220 90° East 157 181 1,000 -800 Descending FlightAware ADS-B
Sat 09:30:42 PM 26.0770 -80.2090 90° East 157 181 800 -764 Descending FlightAware ADS-B
Sat 09:31:22 PM 26.0770 -80.1790 90° East 143 165 300 -462 Descending FlightAware ADS-B
Sat 09:31:47 PM 26.0770 -80.1620 90° East 143 165 300  Level FlightAware ADS-B

Login

Don't have an account? Register now (free) for customized features, flight alerts, and more!